sensor_id;sensor_type;location;lat;lon;timestamp;P1;durP1;ratioP1;P2;durP2;ratioP2
31676;SDS011;18385;51.572;6.578;2024-02-21T00:00:46;25.70;;;7.00;;
31676;SDS011;18385;51.572;6.578;2024-02-21T00:03:12;21.63;;;7.85;;
31676;SDS011;18385;51.572;6.578;2024-02-21T00:05:37;19.95;;;6.93;;
31676;SDS011;18385;51.572;6.578;2024-02-21T00:08:03;21.02;;;7.07;;
31676;SDS011;18385;51.572;6.578;2024-02-21T00:10:29;27.30;;;7.78;;
31676;SDS011;18385;51.572;6.578;2024-02-21T00:12:57;20.88;;;8.05;;
31676;SDS011;18385;51.572;6.578;2024-02-21T00:15:24;24.73;;;6.55;;
31676;SDS011;18385;51.572;6.578;2024-02-21T00:17:50;22.67;;;6.82;;
31676;SDS011;18385;51.572;6.578;2024-02-21T00:20:16;25.10;;;7.28;;
31676;SDS011;18385;51.572;6.578;2024-02-21T00:22:42;18.17;;;6.60;;
31676;SDS011;18385;51.572;6.578;2024-02-21T00:25:09;23.17;;;7.82;;
31676;SDS011;18385;51.572;6.578;2024-02-21T00:27:35;28.92;;;7.35;;
31676;SDS011;18385;51.572;6.578;2024-02-21T00:30:01;25.17;;;7.15;;
31676;SDS011;18385;51.572;6.578;2024-02-21T00:32:27;20.85;;;7.82;;
31676;SDS011;18385;51.572;6.578;2024-02-21T00:34:53;30.08;;;7.13;;
31676;SDS011;18385;51.572;6.578;2024-02-21T00:37:18;28.63;;;7.38;;
31676;SDS011;18385;51.572;6.578;2024-02-21T00:39:44;22.25;;;7.70;;
31676;SDS011;18385;51.572;6.578;2024-02-21T00:42:10;22.27;;;6.93;;
31676;SDS011;18385;51.572;6.578;2024-02-21T00:44:35;19.02;;;7.35;;
31676;SDS011;18385;51.572;6.578;2024-02-21T00:47:01;23.08;;;7.78;;
31676;SDS011;18385;51.572;6.578;2024-02-21T00:49:27;19.92;;;7.45;;
31676;SDS011;18385;51.572;6.578;2024-02-21T00:51:52;18.80;;;7.53;;
31676;SDS011;18385;51.572;6.578;2024-02-21T00:54:18;22.70;;;7.65;;
31676;SDS011;18385;51.572;6.578;2024-02-21T00:56:44;18.42;;;7.43;;
31676;SDS011;18385;51.572;6.578;2024-02-21T00:59:10;23.27;;;7.03;;
31676;SDS011;18385;51.572;6.578;2024-02-21T01:01:36;19.63;;;7.28;;
31676;SDS011;18385;51.572;6.578;2024-02-21T01:04:02;23.05;;;6.22;;
31676;SDS011;18385;51.572;6.578;2024-02-21T01:06:27;19.98;;;6.80;;
31676;SDS011;18385;51.572;6.578;2024-02-21T01:08:53;26.45;;;8.38;;
31676;SDS011;18385;51.572;6.578;2024-02-21T01:11:18;26.73;;;7.85;;
31676;SDS011;18385;51.572;6.578;2024-02-21T01:13:44;17.67;;;6.53;;
31676;SDS011;18385;51.572;6.578;2024-02-21T01:16:10;23.83;;;7.55;;
31676;SDS011;18385;51.572;6.578;2024-02-21T01:18:39;20.50;;;6.38;;
31676;SDS011;18385;51.572;6.578;2024-02-21T01:21:05;18.90;;;6.78;;
31676;SDS011;18385;51.572;6.578;2024-02-21T01:23:35;25.00;;;7.88;;
31676;SDS011;18385;51.572;6.578;2024-02-21T01:26:02;22.70;;;7.47;;
31676;SDS011;18385;51.572;6.578;2024-02-21T01:28:28;26.05;;;7.10;;
31676;SDS011;18385;51.572;6.578;2024-02-21T01:30:55;26.67;;;8.43;;
31676;SDS011;18385;51.572;6.578;2024-02-21T01:33:21;22.70;;;7.35;;
31676;SDS011;18385;51.572;6.578;2024-02-21T01:35:47;22.98;;;7.30;;
31676;SDS011;18385;51.572;6.578;2024-02-21T01:38:13;26.00;;;7.53;;
31676;SDS011;18385;51.572;6.578;2024-02-21T01:40:38;22.85;;;7.30;;
31676;SDS011;18385;51.572;6.578;2024-02-21T01:43:14;26.92;;;8.38;;
31676;SDS011;18385;51.572;6.578;2024-02-21T01:45:43;26.75;;;7.40;;
31676;SDS011;18385;51.572;6.578;2024-02-21T01:48:12;22.58;;;6.80;;
31676;SDS011;18385;51.572;6.578;2024-02-21T01:50:38;18.70;;;6.57;;
31676;SDS011;18385;51.572;6.578;2024-02-21T01:53:04;24.00;;;7.75;;
31676;SDS011;18385;51.572;6.578;2024-02-21T01:55:31;27.23;;;8.10;;
31676;SDS011;18385;51.572;6.578;2024-02-21T01:57:57;20.70;;;7.82;;
31676;SDS011;18385;51.572;6.578;2024-02-21T02:00:22;21.30;;;7.53;;
31676;SDS011;18385;51.572;6.578;2024-02-21T02:02:49;20.33;;;7.00;;
31676;SDS011;18385;51.572;6.578;2024-02-21T02:05:15;19.50;;;6.68;;
31676;SDS011;18385;51.572;6.578;2024-02-21T02:07:43;21.73;;;7.25;;
31676;SDS011;18385;51.572;6.578;2024-02-21T02:10:09;17.02;;;6.68;;
31676;SDS011;18385;51.572;6.578;2024-02-21T02:12:35;20.85;;;5.88;;
31676;SDS011;18385;51.572;6.578;2024-02-21T02:15:01;17.17;;;6.82;;
31676;SDS011;18385;51.572;6.578;2024-02-21T02:19:56;21.88;;;6.95;;
31676;SDS011;18385;51.572;6.578;2024-02-21T02:22:22;19.58;;;6.00;;
31676;SDS011;18385;51.572;6.578;2024-02-21T02:24:53;16.08;;;6.50;;
31676;SDS011;18385;51.572;6.578;2024-02-21T02:27:18;19.00;;;6.38;;
31676;SDS011;18385;51.572;6.578;2024-02-21T02:29:44;16.73;;;5.80;;
31676;SDS011;18385;51.572;6.578;2024-02-21T02:32:10;12.90;;;5.65;;
31676;SDS011;18385;51.572;6.578;2024-02-21T02:34:36;24.45;;;6.63;;
31676;SDS011;18385;51.572;6.578;2024-02-21T02:37:02;22.30;;;7.30;;
31676;SDS011;18385;51.572;6.578;2024-02-21T02:39:28;17.08;;;5.68;;
31676;SDS011;18385;51.572;6.578;2024-02-21T02:41:54;17.55;;;6.20;;
31676;SDS011;18385;51.572;6.578;2024-02-21T02:44:19;13.70;;;5.57;;
31676;SDS011;18385;51.572;6.578;2024-02-21T02:46:45;17.27;;;5.78;;
31676;SDS011;18385;51.572;6.578;2024-02-21T02:49:10;20.42;;;6.82;;
31676;SDS011;18385;51.572;6.578;2024-02-21T02:51:36;18.05;;;6.35;;
31676;SDS011;18385;51.572;6.578;2024-02-21T02:54:02;16.65;;;6.22;;
31676;SDS011;18385;51.572;6.578;2024-02-21T02:56:28;20.02;;;6.70;;
31676;SDS011;18385;51.572;6.578;2024-02-21T02:58:53;14.20;;;5.32;;
31676;SDS011;18385;51.572;6.578;2024-02-21T03:01:19;19.33;;;5.22;;
31676;SDS011;18385;51.572;6.578;2024-02-21T03:03:45;14.68;;;5.47;;
31676;SDS011;18385;51.572;6.578;2024-02-21T03:06:12;14.95;;;5.22;;
31676;SDS011;18385;51.572;6.578;2024-02-21T03:08:38;15.15;;;5.32;;
31676;SDS011;18385;51.572;6.578;2024-02-21T03:11:05;11.23;;;5.70;;
31676;SDS011;18385;51.572;6.578;2024-02-21T03:13:31;19.75;;;6.18;;
31676;SDS011;18385;51.572;6.578;2024-02-21T03:15:56;17.13;;;5.47;;
31676;SDS011;18385;51.572;6.578;2024-02-21T03:18:22;20.08;;;5.78;;
31676;SDS011;18385;51.572;6.578;2024-02-21T03:20:47;19.92;;;6.20;;
31676;SDS011;18385;51.572;6.578;2024-02-21T03:23:13;18.17;;;5.65;;
31676;SDS011;18385;51.572;6.578;2024-02-21T03:25:39;14.85;;;6.10;;
31676;SDS011;18385;51.572;6.578;2024-02-21T03:28:04;12.88;;;4.72;;
31676;SDS011;18385;51.572;6.578;2024-02-21T03:30:30;15.10;;;5.90;;
31676;SDS011;18385;51.572;6.578;2024-02-21T03:32:56;20.52;;;5.97;;
31676;SDS011;18385;51.572;6.578;2024-02-21T03:35:22;16.30;;;5.50;;
31676;SDS011;18385;51.572;6.578;2024-02-21T03:37:51;16.48;;;5.22;;
31676;SDS011;18385;51.572;6.578;2024-02-21T03:40:17;14.23;;;4.25;;
31676;SDS011;18385;51.572;6.578;2024-02-21T03:42:42;15.43;;;5.28;;
31676;SDS011;18385;51.572;6.578;2024-02-21T03:45:09;16.08;;;5.03;;
31676;SDS011;18385;51.572;6.578;2024-02-21T03:47:34;10.57;;;4.22;;
31676;SDS011;18385;51.572;6.578;2024-02-21T03:50:00;13.35;;;4.43;;
31676;SDS011;18385;51.572;6.578;2024-02-21T03:52:26;12.98;;;4.53;;
31676;SDS011;18385;51.572;6.578;2024-02-21T03:54:51;16.45;;;4.45;;
31676;SDS011;18385;51.572;6.578;2024-02-21T03:57:20;13.68;;;4.25;;
31676;SDS011;18385;51.572;6.578;2024-02-21T03:59:46;13.65;;;4.82;;
31676;SDS011;18385;51.572;6.578;2024-02-21T04:02:14;15.48;;;4.88;;
31676;SDS011;18385;51.572;6.578;2024-02-21T04:04:42;9.52;;;4.70;;
31676;SDS011;18385;51.572;6.578;2024-02-21T04:07:11;11.32;;;4.25;;
31676;SDS011;18385;51.572;6.578;2024-02-21T04:09:37;11.52;;;3.83;;
31676;SDS011;18385;51.572;6.578;2024-02-21T04:12:03;9.40;;;4.20;;
31676;SDS011;18385;51.572;6.578;2024-02-21T04:14:29;12.18;;;4.70;;
31676;SDS011;18385;51.572;6.578;2024-02-21T04:16:55;13.10;;;4.65;;
31676;SDS011;18385;51.572;6.578;2024-02-21T04:19:20;10.43;;;4.20;;
31676;SDS011;18385;51.572;6.578;2024-02-21T04:21:46;10.02;;;3.63;;
31676;SDS011;18385;51.572;6.578;2024-02-21T04:24:12;11.80;;;4.13;;
31676;SDS011;18385;51.572;6.578;2024-02-21T04:26:37;9.75;;;3.60;;
31676;SDS011;18385;51.572;6.578;2024-02-21T04:29:03;11.48;;;4.47;;
31676;SDS011;18385;51.572;6.578;2024-02-21T04:31:28;13.07;;;4.18;;
31676;SDS011;18385;51.572;6.578;2024-02-21T04:33:54;10.45;;;3.90;;
31676;SDS011;18385;51.572;6.578;2024-02-21T04:36:20;8.95;;;3.20;;
31676;SDS011;18385;51.572;6.578;2024-02-21T04:38:46;8.75;;;3.70;;
31676;SDS011;18385;51.572;6.578;2024-02-21T04:41:11;13.13;;;3.97;;
31676;SDS011;18385;51.572;6.578;2024-02-21T04:43:37;11.77;;;4.22;;
31676;SDS011;18385;51.572;6.578;2024-02-21T04:46:02;18.20;;;4.45;;
31676;SDS011;18385;51.572;6.578;2024-02-21T04:48:29;16.10;;;5.38;;
31676;SDS011;18385;51.572;6.578;2024-02-21T04:50:55;14.82;;;3.70;;
31676;SDS011;18385;51.572;6.578;2024-02-21T04:53:20;13.10;;;4.07;;
31676;SDS011;18385;51.572;6.578;2024-02-21T04:55:46;10.70;;;3.80;;
31676;SDS011;18385;51.572;6.578;2024-02-21T04:58:12;9.43;;;3.58;;
31676;SDS011;18385;51.572;6.578;2024-02-21T05:00:38;12.48;;;3.65;;
31676;SDS011;18385;51.572;6.578;2024-02-21T05:03:03;10.55;;;4.10;;
31676;SDS011;18385;51.572;6.578;2024-02-21T05:05:29;10.07;;;3.15;;
31676;SDS011;18385;51.572;6.578;2024-02-21T05:07:55;18.70;;;4.65;;
31676;SDS011;18385;51.572;6.578;2024-02-21T05:10:20;9.45;;;3.67;;
31676;SDS011;18385;51.572;6.578;2024-02-21T05:12:46;12.93;;;4.20;;
31676;SDS011;18385;51.572;6.578;2024-02-21T05:15:12;13.50;;;4.18;;
31676;SDS011;18385;51.572;6.578;2024-02-21T05:17:37;15.02;;;3.83;;
31676;SDS011;18385;51.572;6.578;2024-02-21T05:20:03;7.43;;;3.17;;
31676;SDS011;18385;51.572;6.578;2024-02-21T05:22:29;5.97;;;3.22;;
31676;SDS011;18385;51.572;6.578;2024-02-21T05:24:55;6.93;;;2.60;;
31676;SDS011;18385;51.572;6.578;2024-02-21T05:27:20;8.05;;;2.63;;
31676;SDS011;18385;51.572;6.578;2024-02-21T05:29:46;9.38;;;3.33;;
31676;SDS011;18385;51.572;6.578;2024-02-21T05:32:13;9.95;;;3.28;;
31676;SDS011;18385;51.572;6.578;2024-02-21T05:34:38;8.45;;;3.30;;
31676;SDS011;18385;51.572;6.578;2024-02-21T05:37:04;8.02;;;2.75;;
31676;SDS011;18385;51.572;6.578;2024-02-21T05:39:30;10.52;;;3.15;;
31676;SDS011;18385;51.572;6.578;2024-02-21T05:41:56;9.95;;;3.47;;
31676;SDS011;18385;51.572;6.578;2024-02-21T05:44:21;9.85;;;3.00;;
31676;SDS011;18385;51.572;6.578;2024-02-21T05:46:47;9.50;;;3.75;;
31676;SDS011;18385;51.572;6.578;2024-02-21T05:49:13;10.23;;;2.95;;
31676;SDS011;18385;51.572;6.578;2024-02-21T05:51:39;9.80;;;3.17;;
31676;SDS011;18385;51.572;6.578;2024-02-21T05:54:05;9.77;;;3.50;;
31676;SDS011;18385;51.572;6.578;2024-02-21T05:56:32;11.55;;;3.72;;
31676;SDS011;18385;51.572;6.578;2024-02-21T05:58:58;17.38;;;5.15;;
31676;SDS011;18385;51.572;6.578;2024-02-21T06:01:23;8.63;;;3.35;;
31676;SDS011;18385;51.572;6.578;2024-02-21T06:03:50;10.88;;;3.15;;
31676;SDS011;18385;51.572;6.578;2024-02-21T06:06:15;13.70;;;3.50;;
31676;SDS011;18385;51.572;6.578;2024-02-21T06:08:41;12.38;;;3.70;;
31676;SDS011;18385;51.572;6.578;2024-02-21T06:11:07;12.90;;;4.00;;
31676;SDS011;18385;51.572;6.578;2024-02-21T06:13:32;14.15;;;4.10;;
31676;SDS011;18385;51.572;6.578;2024-02-21T06:15:58;16.27;;;4.53;;
31676;SDS011;18385;51.572;6.578;2024-02-21T06:18:24;11.60;;;4.50;;
31676;SDS011;18385;51.572;6.578;2024-02-21T06:20:49;13.20;;;3.90;;
31676;SDS011;18385;51.572;6.578;2024-02-21T06:23:15;7.85;;;3.50;;
31676;SDS011;18385;51.572;6.578;2024-02-21T06:25:42;17.13;;;3.83;;
31676;SDS011;18385;51.572;6.578;2024-02-21T06:28:08;8.48;;;3.10;;
31676;SDS011;18385;51.572;6.578;2024-02-21T06:30:33;11.25;;;3.78;;
31676;SDS011;18385;51.572;6.578;2024-02-21T06:33:00;15.98;;;3.70;;
31676;SDS011;18385;51.572;6.578;2024-02-21T06:35:27;11.73;;;4.00;;
31676;SDS011;18385;51.572;6.578;2024-02-21T06:37:53;12.82;;;3.17;;
31676;SDS011;18385;51.572;6.578;2024-02-21T06:40:20;9.95;;;4.00;;
31676;SDS011;18385;51.572;6.578;2024-02-21T06:42:47;17.33;;;4.00;;
31676;SDS011;18385;51.572;6.578;2024-02-21T06:45:12;10.32;;;3.05;;
31676;SDS011;18385;51.572;6.578;2024-02-21T06:47:38;14.15;;;3.38;;
31676;SDS011;18385;51.572;6.578;2024-02-21T06:50:04;12.40;;;4.20;;
31676;SDS011;18385;51.572;6.578;2024-02-21T06:52:30;7.78;;;2.72;;
31676;SDS011;18385;51.572;6.578;2024-02-21T06:54:56;7.43;;;3.22;;
31676;SDS011;18385;51.572;6.578;2024-02-21T06:57:22;9.27;;;3.65;;
31676;SDS011;18385;51.572;6.578;2024-02-21T06:59:47;12.90;;;3.78;;
31676;SDS011;18385;51.572;6.578;2024-02-21T07:02:13;9.52;;;3.33;;
31676;SDS011;18385;51.572;6.578;2024-02-21T07:04:39;9.82;;;3.72;;
31676;SDS011;18385;51.572;6.578;2024-02-21T07:07:04;15.98;;;5.20;;
31676;SDS011;18385;51.572;6.578;2024-02-21T07:09:30;13.63;;;3.58;;
31676;SDS011;18385;51.572;6.578;2024-02-21T07:11:57;11.55;;;3.83;;
31676;SDS011;18385;51.572;6.578;2024-02-21T07:14:23;11.50;;;4.30;;
31676;SDS011;18385;51.572;6.578;2024-02-21T07:16:49;19.75;;;4.32;;
31676;SDS011;18385;51.572;6.578;2024-02-21T07:19:15;12.57;;;4.50;;
31676;SDS011;18385;51.572;6.578;2024-02-21T07:21:40;9.45;;;3.60;;
31676;SDS011;18385;51.572;6.578;2024-02-21T07:24:09;14.00;;;4.43;;
31676;SDS011;18385;51.572;6.578;2024-02-21T07:26:34;8.65;;;3.60;;
31676;SDS011;18385;51.572;6.578;2024-02-21T07:29:00;12.15;;;4.30;;
31676;SDS011;18385;51.572;6.578;2024-02-21T07:31:26;13.23;;;4.10;;
31676;SDS011;18385;51.572;6.578;2024-02-21T07:33:52;9.02;;;3.70;;
31676;SDS011;18385;51.572;6.578;2024-02-21T07:36:27;12.00;;;4.38;;
31676;SDS011;18385;51.572;6.578;2024-02-21T07:38:54;10.75;;;3.67;;
31676;SDS011;18385;51.572;6.578;2024-02-21T07:41:20;12.23;;;3.80;;
31676;SDS011;18385;51.572;6.578;2024-02-21T07:43:46;11.95;;;3.63;;
31676;SDS011;18385;51.572;6.578;2024-02-21T07:46:13;10.27;;;3.60;;
31676;SDS011;18385;51.572;6.578;2024-02-21T07:48:39;9.75;;;4.18;;
31676;SDS011;18385;51.572;6.578;2024-02-21T07:51:05;10.55;;;3.88;;
31676;SDS011;18385;51.572;6.578;2024-02-21T07:53:31;14.18;;;3.97;;
31676;SDS011;18385;51.572;6.578;2024-02-21T07:55:56;9.57;;;3.50;;
31676;SDS011;18385;51.572;6.578;2024-02-21T07:58:22;12.80;;;5.03;;
31676;SDS011;18385;51.572;6.578;2024-02-21T08:00:48;14.23;;;4.22;;
31676;SDS011;18385;51.572;6.578;2024-02-21T08:03:14;9.48;;;3.83;;
31676;SDS011;18385;51.572;6.578;2024-02-21T08:05:42;8.05;;;3.17;;
31676;SDS011;18385;51.572;6.578;2024-02-21T08:08:08;6.72;;;3.20;;
31676;SDS011;18385;51.572;6.578;2024-02-21T08:10:34;12.15;;;3.53;;
31676;SDS011;18385;51.572;6.578;2024-02-21T08:13:00;9.48;;;3.17;;
31676;SDS011;18385;51.572;6.578;2024-02-21T08:15:26;10.30;;;2.90;;
31676;SDS011;18385;51.572;6.578;2024-02-21T08:17:55;10.20;;;3.38;;
31676;SDS011;18385;51.572;6.578;2024-02-21T08:20:24;9.88;;;3.05;;
31676;SDS011;18385;51.572;6.578;2024-02-21T08:22:50;9.95;;;3.38;;
31676;SDS011;18385;51.572;6.578;2024-02-21T08:25:18;10.05;;;2.83;;
31676;SDS011;18385;51.572;6.578;2024-02-21T08:27:44;9.88;;;2.72;;
31676;SDS011;18385;51.572;6.578;2024-02-21T08:30:10;9.35;;;3.17;;
31676;SDS011;18385;51.572;6.578;2024-02-21T08:32:36;7.50;;;2.58;;
31676;SDS011;18385;51.572;6.578;2024-02-21T08:35:02;10.88;;;3.20;;
31676;SDS011;18385;51.572;6.578;2024-02-21T08:37:30;9.05;;;2.35;;
31676;SDS011;18385;51.572;6.578;2024-02-21T08:39:56;9.85;;;2.65;;
31676;SDS011;18385;51.572;6.578;2024-02-21T08:42:22;7.00;;;2.50;;
31676;SDS011;18385;51.572;6.578;2024-02-21T08:44:48;8.35;;;2.75;;
31676;SDS011;18385;51.572;6.578;2024-02-21T08:47:14;6.28;;;2.63;;
31676;SDS011;18385;51.572;6.578;2024-02-21T08:49:39;5.72;;;2.63;;
31676;SDS011;18385;51.572;6.578;2024-02-21T08:52:05;10.40;;;3.10;;
31676;SDS011;18385;51.572;6.578;2024-02-21T08:54:31;4.50;;;2.50;;
31676;SDS011;18385;51.572;6.578;2024-02-21T08:57:00;10.32;;;2.28;;
31676;SDS011;18385;51.572;6.578;2024-02-21T08:59:26;7.28;;;2.58;;
31676;SDS011;18385;51.572;6.578;2024-02-21T09:01:51;9.85;;;2.70;;
31676;SDS011;18385;51.572;6.578;2024-02-21T09:04:20;8.57;;;3.08;;
31676;SDS011;18385;51.572;6.578;2024-02-21T09:06:46;7.10;;;2.60;;
31676;SDS011;18385;51.572;6.578;2024-02-21T09:09:11;8.68;;;2.53;;
31676;SDS011;18385;51.572;6.578;2024-02-21T09:11:37;12.40;;;3.53;;
31676;SDS011;18385;51.572;6.578;2024-02-21T09:14:05;11.68;;;3.42;;
31676;SDS011;18385;51.572;6.578;2024-02-21T09:16:31;12.68;;;3.58;;
31676;SDS011;18385;51.572;6.578;2024-02-21T09:18:57;10.93;;;2.97;;
31676;SDS011;18385;51.572;6.578;2024-02-21T09:21:23;11.75;;;2.95;;
31676;SDS011;18385;51.572;6.578;2024-02-21T09:23:49;11.93;;;3.60;;
31676;SDS011;18385;51.572;6.578;2024-02-21T09:26:14;12.02;;;2.95;;
31676;SDS011;18385;51.572;6.578;2024-02-21T09:28:42;13.95;;;4.57;;
31676;SDS011;18385;51.572;6.578;2024-02-21T09:31:08;10.75;;;3.78;;
31676;SDS011;18385;51.572;6.578;2024-02-21T09:33:34;12.93;;;4.68;;
31676;SDS011;18385;51.572;6.578;2024-02-21T09:35:59;9.07;;;2.97;;
31676;SDS011;18385;51.572;6.578;2024-02-21T09:38:26;6.35;;;2.20;;
31676;SDS011;18385;51.572;6.578;2024-02-21T09:40:59;12.52;;;2.92;;
31676;SDS011;18385;51.572;6.578;2024-02-21T09:43:45;9.13;;;3.28;;
31676;SDS011;18385;51.572;6.578;2024-02-21T09:46:17;9.45;;;2.15;;
31676;SDS011;18385;51.572;6.578;2024-02-21T09:51:39;7.82;;;2.25;;
31676;SDS011;18385;51.572;6.578;2024-02-21T09:54:07;9.00;;;2.08;;
31676;SDS011;18385;51.572;6.578;2024-02-21T09:56:33;15.20;;;3.10;;
31676;SDS011;18385;51.572;6.578;2024-02-21T09:58:58;12.48;;;3.47;;
31676;SDS011;18385;51.572;6.578;2024-02-21T10:01:28;9.07;;;2.40;;
31676;SDS011;18385;51.572;6.578;2024-02-21T10:03:55;13.02;;;3.17;;
31676;SDS011;18385;51.572;6.578;2024-02-21T10:06:20;6.38;;;2.30;;
31676;SDS011;18385;51.572;6.578;2024-02-21T10:08:55;6.80;;;2.00;;
31676;SDS011;18385;51.572;6.578;2024-02-21T10:11:24;13.75;;;3.38;;
31676;SDS011;18385;51.572;6.578;2024-02-21T10:13:50;10.40;;;2.95;;
31676;SDS011;18385;51.572;6.578;2024-02-21T10:16:16;10.23;;;3.28;;
31676;SDS011;18385;51.572;6.578;2024-02-21T10:18:42;11.13;;;3.60;;
31676;SDS011;18385;51.572;6.578;2024-02-21T10:21:08;6.72;;;2.38;;
31676;SDS011;18385;51.572;6.578;2024-02-21T10:23:48;10.00;;;3.17;;
31676;SDS011;18385;51.572;6.578;2024-02-21T10:26:14;12.40;;;3.03;;
31676;SDS011;18385;51.572;6.578;2024-02-21T10:28:41;9.55;;;2.53;;
31676;SDS011;18385;51.572;6.578;2024-02-21T10:31:27;8.88;;;2.58;;
31676;SDS011;18385;51.572;6.578;2024-02-21T10:34:02;8.73;;;2.72;;
31676;SDS011;18385;51.572;6.578;2024-02-21T10:36:28;12.13;;;4.28;;
31676;SDS011;18385;51.572;6.578;2024-02-21T10:38:54;10.07;;;3.85;;
31676;SDS011;18385;51.572;6.578;2024-02-21T10:41:21;10.65;;;3.65;;
31676;SDS011;18385;51.572;6.578;2024-02-21T10:43:51;10.27;;;3.53;;
31676;SDS011;18385;51.572;6.578;2024-02-21T10:46:19;10.60;;;3.75;;
31676;SDS011;18385;51.572;6.578;2024-02-21T10:48:47;13.80;;;4.15;;
31676;SDS011;18385;51.572;6.578;2024-02-21T10:51:17;12.60;;;3.35;;
31676;SDS011;18385;51.572;6.578;2024-02-21T10:53:45;6.85;;;3.20;;
31676;SDS011;18385;51.572;6.578;2024-02-21T10:58:50;10.68;;;2.47;;
31676;SDS011;18385;51.572;6.578;2024-02-21T11:01:18;12.23;;;3.33;;
31676;SDS011;18385;51.572;6.578;2024-02-21T11:03:47;11.05;;;3.65;;
31676;SDS011;18385;51.572;6.578;2024-02-21T11:06:19;11.27;;;3.33;;
31676;SDS011;18385;51.572;6.578;2024-02-21T11:08:47;16.15;;;4.65;;
31676;SDS011;18385;51.572;6.578;2024-02-21T11:11:13;11.65;;;3.50;;
31676;SDS011;18385;51.572;6.578;2024-02-21T11:13:44;6.30;;;2.72;;
31676;SDS011;18385;51.572;6.578;2024-02-21T11:16:12;12.57;;;3.70;;
31676;SDS011;18385;51.572;6.578;2024-02-21T11:18:46;16.58;;;3.85;;
31676;SDS011;18385;51.572;6.578;2024-02-21T11:21:12;8.65;;;2.38;;
31676;SDS011;18385;51.572;6.578;2024-02-21T11:23:38;9.73;;;2.70;;
31676;SDS011;18385;51.572;6.578;2024-02-21T11:26:04;11.90;;;3.10;;
31676;SDS011;18385;51.572;6.578;2024-02-21T11:28:34;9.68;;;3.65;;
31676;SDS011;18385;51.572;6.578;2024-02-21T11:31:08;8.75;;;2.95;;
31676;SDS011;18385;51.572;6.578;2024-02-21T11:33:39;11.18;;;3.00;;
31676;SDS011;18385;51.572;6.578;2024-02-21T11:36:06;10.55;;;3.28;;
31676;SDS011;18385;51.572;6.578;2024-02-21T11:38:32;12.85;;;4.20;;
31676;SDS011;18385;51.572;6.578;2024-02-21T11:40:58;9.57;;;3.85;;
31676;SDS011;18385;51.572;6.578;2024-02-21T11:43:23;8.75;;;3.30;;
31676;SDS011;18385;51.572;6.578;2024-02-21T11:45:50;7.07;;;2.72;;
31676;SDS011;18385;51.572;6.578;2024-02-21T11:48:16;9.15;;;2.28;;
31676;SDS011;18385;51.572;6.578;2024-02-21T11:50:41;8.02;;;3.28;;
31676;SDS011;18385;51.572;6.578;2024-02-21T11:53:07;10.65;;;2.47;;
31676;SDS011;18385;51.572;6.578;2024-02-21T11:55:34;9.85;;;2.45;;
31676;SDS011;18385;51.572;6.578;2024-02-21T11:57:59;8.10;;;2.63;;
31676;SDS011;18385;51.572;6.578;2024-02-21T12:00:25;6.57;;;1.92;;
31676;SDS011;18385;51.572;6.578;2024-02-21T12:02:51;11.13;;;1.88;;
31676;SDS011;18385;51.572;6.578;2024-02-21T12:05:18;9.48;;;2.83;;
31676;SDS011;18385;51.572;6.578;2024-02-21T12:07:45;9.27;;;1.80;;
31676;SDS011;18385;51.572;6.578;2024-02-21T12:10:11;6.82;;;2.10;;
31676;SDS011;18385;51.572;6.578;2024-02-21T12:12:38;4.57;;;1.75;;
31676;SDS011;18385;51.572;6.578;2024-02-21T12:15:04;14.30;;;2.80;;
31676;SDS011;18385;51.572;6.578;2024-02-21T12:17:34;7.18;;;2.72;;
31676;SDS011;18385;51.572;6.578;2024-02-21T12:20:03;9.15;;;3.50;;
31676;SDS011;18385;51.572;6.578;2024-02-21T12:22:31;12.32;;;3.05;;
31676;SDS011;18385;51.572;6.578;2024-02-21T12:25:00;12.85;;;2.85;;
31676;SDS011;18385;51.572;6.578;2024-02-21T12:27:29;9.35;;;2.90;;
31676;SDS011;18385;51.572;6.578;2024-02-21T12:29:55;8.57;;;3.47;;
31676;SDS011;18385;51.572;6.578;2024-02-21T12:32:20;11.45;;;3.95;;
31676;SDS011;18385;51.572;6.578;2024-02-21T12:34:46;10.65;;;2.67;;
31676;SDS011;18385;51.572;6.578;2024-02-21T12:37:12;6.40;;;2.05;;
31676;SDS011;18385;51.572;6.578;2024-02-21T12:39:38;13.90;;;4.90;;
31676;SDS011;18385;51.572;6.578;2024-02-21T12:42:04;8.63;;;3.05;;
31676;SDS011;18385;51.572;6.578;2024-02-21T12:44:29;6.80;;;2.13;;
31676;SDS011;18385;51.572;6.578;2024-02-21T12:46:55;6.40;;;2.30;;
31676;SDS011;18385;51.572;6.578;2024-02-21T12:49:21;8.73;;;3.08;;
31676;SDS011;18385;51.572;6.578;2024-02-21T12:51:46;5.53;;;1.63;;
31676;SDS011;18385;51.572;6.578;2024-02-21T12:54:12;10.15;;;3.28;;
31676;SDS011;18385;51.572;6.578;2024-02-21T12:56:38;5.28;;;2.28;;
31676;SDS011;18385;51.572;6.578;2024-02-21T12:59:05;6.53;;;2.45;;
31676;SDS011;18385;51.572;6.578;2024-02-21T13:01:34;8.23;;;2.13;;
31676;SDS011;18385;51.572;6.578;2024-02-21T13:04:01;7.63;;;2.25;;
31676;SDS011;18385;51.572;6.578;2024-02-21T13:06:27;9.63;;;1.60;;
31676;SDS011;18385;51.572;6.578;2024-02-21T13:08:54;12.73;;;2.72;;
31676;SDS011;18385;51.572;6.578;2024-02-21T13:11:20;17.38;;;2.78;;
31676;SDS011;18385;51.572;6.578;2024-02-21T13:13:45;7.18;;;2.40;;
31676;SDS011;18385;51.572;6.578;2024-02-21T13:16:11;6.97;;;2.22;;
31676;SDS011;18385;51.572;6.578;2024-02-21T13:18:37;6.88;;;1.85;;
31676;SDS011;18385;51.572;6.578;2024-02-21T13:21:06;8.40;;;2.78;;
31676;SDS011;18385;51.572;6.578;2024-02-21T13:23:32;8.48;;;1.80;;
31676;SDS011;18385;51.572;6.578;2024-02-21T13:25:58;11.95;;;2.65;;
31676;SDS011;18385;51.572;6.578;2024-02-21T13:28:24;15.07;;;2.22;;
31676;SDS011;18385;51.572;6.578;2024-02-21T13:30:50;6.18;;;2.00;;
31676;SDS011;18385;51.572;6.578;2024-02-21T13:33:15;9.98;;;1.92;;
31676;SDS011;18385;51.572;6.578;2024-02-21T13:35:41;17.20;;;1.98;;
31676;SDS011;18385;51.572;6.578;2024-02-21T13:38:07;10.35;;;2.55;;
31676;SDS011;18385;51.572;6.578;2024-02-21T13:40:32;6.28;;;2.10;;
31676;SDS011;18385;51.572;6.578;2024-02-21T13:42:58;7.43;;;2.03;;
31676;SDS011;18385;51.572;6.578;2024-02-21T13:45:23;10.50;;;2.83;;
31676;SDS011;18385;51.572;6.578;2024-02-21T13:47:49;8.38;;;1.50;;
31676;SDS011;18385;51.572;6.578;2024-02-21T13:50:15;11.13;;;2.00;;
31676;SDS011;18385;51.572;6.578;2024-02-21T13:52:41;7.70;;;1.98;;
31676;SDS011;18385;51.572;6.578;2024-02-21T13:55:07;8.25;;;1.70;;
31676;SDS011;18385;51.572;6.578;2024-02-21T13:57:36;8.80;;;1.90;;
31676;SDS011;18385;51.572;6.578;2024-02-21T14:00:02;6.07;;;2.17;;
31676;SDS011;18385;51.572;6.578;2024-02-21T14:02:37;8.57;;;1.80;;
31676;SDS011;18385;51.572;6.578;2024-02-21T14:05:04;6.57;;;2.40;;
31676;SDS011;18385;51.572;6.578;2024-02-21T14:07:31;9.57;;;2.28;;
31676;SDS011;18385;51.572;6.578;2024-02-21T14:09:58;7.25;;;2.35;;
31676;SDS011;18385;51.572;6.578;2024-02-21T14:12:24;13.18;;;2.45;;
31676;SDS011;18385;51.572;6.578;2024-02-21T14:14:49;6.43;;;2.35;;
31676;SDS011;18385;51.572;6.578;2024-02-21T14:17:16;11.70;;;2.17;;
31676;SDS011;18385;51.572;6.578;2024-02-21T14:19:43;6.07;;;1.98;;
31676;SDS011;18385;51.572;6.578;2024-02-21T14:22:09;7.97;;;2.05;;
31676;SDS011;18385;51.572;6.578;2024-02-21T14:24:36;9.13;;;2.72;;
31676;SDS011;18385;51.572;6.578;2024-02-21T14:27:02;5.25;;;2.17;;
31676;SDS011;18385;51.572;6.578;2024-02-21T14:29:28;5.63;;;1.80;;
31676;SDS011;18385;51.572;6.578;2024-02-21T14:31:54;8.20;;;2.63;;
31676;SDS011;18385;51.572;6.578;2024-02-21T14:34:20;9.35;;;2.60;;
31676;SDS011;18385;51.572;6.578;2024-02-21T14:36:45;8.90;;;2.35;;
31676;SDS011;18385;51.572;6.578;2024-02-21T14:39:11;9.55;;;3.15;;
31676;SDS011;18385;51.572;6.578;2024-02-21T14:41:37;13.73;;;2.92;;